createdAt,value
2022-12-03T00:01:39.416Z,95233.06
2022-12-03T00:04:07.634Z,95231.63
2022-12-03T00:06:37.112Z,95232.09
2022-12-03T00:09:05.900Z,95228.69
2022-12-03T00:11:34.682Z,95228.44
2022-12-03T00:14:02.803Z,95227.75
2022-12-03T00:16:31.129Z,95231.53
2022-12-03T00:18:59.247Z,95232.72
2022-12-03T00:21:27.592Z,95231.13
2022-12-03T00:23:57.200Z,95227.31
2022-12-03T00:26:25.265Z,95229.31
2022-12-03T00:28:54.784Z,95231.94
2022-12-03T00:31:23.712Z,95235.56
2022-12-03T00:33:52.234Z,95228.38
2022-12-03T00:36:20.882Z,95213.75
2022-12-03T00:38:49.050Z,95216.13
2022-12-03T00:41:18.581Z,95224.53
2022-12-03T00:43:46.571Z,95225.59
2022-12-03T00:46:19.686Z,95225.97
2022-12-03T00:48:49.285Z,95223.94
2022-12-03T00:51:17.357Z,95220.16
2022-12-03T00:53:45.816Z,95232.22
2022-12-03T00:56:13.895Z,95227.25
2022-12-03T00:58:43.503Z,95228.03
2022-12-03T01:01:11.918Z,95224.31
2022-12-03T01:03:40.000Z,95221.13
2022-12-03T01:06:08.054Z,95218.91
2022-12-03T01:08:36.090Z,95228.03
2022-12-03T01:11:04.320Z,95220.56
2022-12-03T01:13:32.338Z,95221.13
2022-12-03T01:16:01.841Z,95220.81
2022-12-03T01:18:30.270Z,95215.00
2022-12-03T01:21:01.063Z,95221.94
2022-12-03T01:23:29.167Z,95225.41
2022-12-03T01:25:57.380Z,95224.66
2022-12-03T01:28:25.473Z,95221.34
2022-12-03T01:31:11.072Z,95223.63
2022-12-03T01:33:40.619Z,95230.63
2022-12-03T01:36:09.353Z,95231.34
2022-12-03T01:38:37.526Z,95223.38
2022-12-03T01:41:10.182Z,95231.00
2022-12-03T01:43:40.126Z,95233.72
2022-12-03T01:46:08.455Z,95233.16
2022-12-03T01:48:38.995Z,95225.91
2022-12-03T01:51:09.084Z,95227.75
2022-12-03T01:53:37.477Z,95230.88
2022-12-03T01:56:07.894Z,95226.53
2022-12-03T01:58:40.450Z,95229.16
2022-12-03T02:01:14.411Z,95219.09
2022-12-03T02:03:43.206Z,95230.34
2022-12-03T02:06:17.385Z,95232.28
2022-12-03T02:08:46.186Z,95237.38
2022-12-03T02:11:21.206Z,95223.88
2022-12-03T02:13:55.484Z,95228.56
2022-12-03T02:16:25.517Z,95231.28
2022-12-03T02:18:53.832Z,95229.75
2022-12-03T02:21:29.086Z,95220.09
2022-12-03T02:24:06.011Z,95224.19
2022-12-03T02:26:35.564Z,95222.81
2022-12-03T02:29:03.707Z,95227.25
2022-12-03T02:31:32.451Z,95225.72
2022-12-03T02:34:00.653Z,95222.75
2022-12-03T02:36:30.781Z,95223.97
2022-12-03T02:38:59.056Z,95216.91
2022-12-03T02:41:44.934Z,95216.06
2022-12-03T02:44:14.491Z,95214.56
2022-12-03T02:46:43.074Z,95222.69
2022-12-03T02:49:11.375Z,95215.06
2022-12-03T02:51:39.467Z,95213.00
2022-12-03T02:54:07.521Z,95216.06
2022-12-03T02:56:35.723Z,95223.06
2022-12-03T02:59:06.829Z,95225.34
2022-12-03T03:01:36.417Z,95222.31
2022-12-03T03:04:05.688Z,95214.06
2022-12-03T03:06:33.890Z,95215.50
2022-12-03T03:09:02.098Z,95210.91
2022-12-03T03:11:30.529Z,95214.44
2022-12-03T03:13:58.540Z,95214.66
2022-12-03T03:16:26.812Z,95215.06
2022-12-03T03:18:59.230Z,95216.25
2022-12-03T03:21:27.338Z,95227.16
2022-12-03T03:23:55.443Z,95207.81
2022-12-03T03:26:24.442Z,95215.50
2022-12-03T03:28:53.181Z,95214.47
2022-12-03T03:31:24.217Z,95208.09
2022-12-03T03:33:52.890Z,95203.06
2022-12-03T03:36:23.861Z,95212.59
2022-12-03T03:38:52.387Z,95204.78
2022-12-03T03:41:40.340Z,95214.25
2022-12-03T03:44:09.760Z,95206.03
2022-12-03T03:46:38.828Z,95200.56
2022-12-03T03:49:07.902Z,95203.97
2022-12-03T03:51:38.472Z,95208.03
2022-12-03T03:54:07.990Z,95206.53
2022-12-03T03:56:36.628Z,95201.34
2022-12-03T03:59:05.184Z,95203.19
2022-12-03T04:01:34.197Z,95204.53
2022-12-03T04:04:06.563Z,95204.41
2022-12-03T04:06:36.983Z,95195.31
2022-12-03T04:09:06.294Z,95199.28
2022-12-03T04:11:51.933Z,95202.81
2022-12-03T04:14:20.413Z,95206.66
2022-12-03T04:16:48.555Z,95200.22
2022-12-03T04:19:16.767Z,95199.28
2022-12-03T04:22:03.772Z,95207.69
2022-12-03T04:24:31.827Z,95198.59
2022-12-03T04:27:17.412Z,95199.22
2022-12-03T04:29:45.440Z,95200.28
2022-12-03T04:32:30.864Z,95204.59
2022-12-03T04:35:16.492Z,95208.75
2022-12-03T04:37:46.047Z,95202.47
2022-12-03T04:40:29.010Z,95206.25
2022-12-03T04:42:56.979Z,95208.88
2022-12-03T04:45:25.072Z,95209.44
2022-12-03T04:47:53.093Z,95215.88
2022-12-03T04:50:21.096Z,95214.47
2022-12-03T04:52:50.468Z,95211.47
2022-12-03T04:55:18.552Z,95214.94
2022-12-03T04:57:46.541Z,95212.16
2022-12-03T05:00:16.594Z,95217.25
2022-12-03T05:02:44.837Z,95220.34
2022-12-03T05:05:12.832Z,95207.66
2022-12-03T05:07:40.945Z,95219.16
2022-12-03T05:10:14.696Z,95220.09
2022-12-03T05:12:42.980Z,95230.53
2022-12-03T05:15:11.442Z,95229.94
2022-12-03T05:17:39.485Z,95220.81
2022-12-03T05:20:27.402Z,95223.41
2022-12-03T05:22:55.420Z,95223.13
2022-12-03T05:25:24.826Z,95223.41
2022-12-03T05:27:53.320Z,95220.97
2022-12-03T05:30:22.378Z,95217.53
2022-12-03T05:32:50.988Z,95228.19
2022-12-03T05:35:18.965Z,95231.16
2022-12-03T05:37:47.283Z,95231.03
2022-12-03T05:40:16.514Z,95235.66
2022-12-03T05:42:53.966Z,95228.88
2022-12-03T05:45:22.659Z,95221.41
2022-12-03T05:47:51.027Z,95220.59
2022-12-03T05:50:19.440Z,95223.94
2022-12-03T05:52:47.792Z,95231.25
2022-12-03T05:55:16.308Z,95231.06
2022-12-03T05:57:47.081Z,95233.44
2022-12-03T06:00:17.746Z,95234.59
2022-12-03T06:02:45.998Z,95222.28
2022-12-03T06:05:16.973Z,95228.03
2022-12-03T06:07:45.122Z,95223.50
2022-12-03T06:10:15.106Z,95232.06
2022-12-03T06:12:43.652Z,95231.75
2022-12-03T06:15:14.269Z,95232.56
2022-12-03T06:17:43.140Z,95224.84
2022-12-03T06:20:15.084Z,95229.06
2022-12-03T06:22:43.481Z,95230.41
2022-12-03T06:25:12.144Z,95215.88
2022-12-03T06:27:40.702Z,95219.47
2022-12-03T06:30:10.061Z,95212.66
2022-12-03T06:32:39.507Z,95218.66
2022-12-03T06:35:07.935Z,95212.28
2022-12-03T06:37:35.989Z,95210.25
2022-12-03T06:40:04.248Z,95206.28
2022-12-03T06:42:32.215Z,95207.84
2022-12-03T06:45:00.419Z,95216.50
2022-12-03T06:47:31.339Z,95219.91
2022-12-03T06:50:00.813Z,95230.31
2022-12-03T06:52:28.868Z,95215.16
2022-12-03T06:54:57.131Z,95215.78
2022-12-03T06:57:25.405Z,95224.56
2022-12-03T06:59:53.842Z,95229.22
2022-12-03T07:02:22.071Z,95229.91
2022-12-03T07:04:50.144Z,95228.88
2022-12-03T07:07:19.765Z,95233.78
2022-12-03T07:09:47.800Z,95228.97
2022-12-03T07:12:15.830Z,95222.50
2022-12-03T07:14:43.866Z,95225.53
2022-12-03T07:17:12.371Z,95233.06
2022-12-03T07:19:40.987Z,95228.88
2022-12-03T07:22:09.420Z,95226.38
2022-12-03T07:24:38.845Z,95225.72
2022-12-03T07:27:06.863Z,95227.16
2022-12-03T07:29:34.906Z,95220.69
2022-12-03T07:32:03.100Z,95218.91
2022-12-03T07:34:31.243Z,95216.56
2022-12-03T07:36:59.629Z,95218.00
2022-12-03T07:39:27.881Z,95196.69
2022-12-03T07:41:58.016Z,95204.34
2022-12-03T07:44:26.391Z,95211.28
2022-12-03T07:46:54.585Z,95209.66
2022-12-03T07:49:22.673Z,95213.91
2022-12-03T07:51:54.528Z,95216.25
2022-12-03T07:54:23.098Z,95218.06
2022-12-03T07:56:54.406Z,95221.09
2022-12-03T07:59:27.558Z,95218.84
2022-12-03T08:01:55.736Z,95213.38
2022-12-03T08:04:23.934Z,95203.91
2022-12-03T08:06:52.187Z,95216.22
2022-12-03T08:09:20.316Z,95228.41
2022-12-03T08:11:50.552Z,95207.84
2022-12-03T08:14:20.911Z,95199.63
2022-12-03T08:16:50.442Z,95218.00
2022-12-03T08:19:19.533Z,95209.34
2022-12-03T08:21:47.654Z,95216.38
2022-12-03T08:24:17.849Z,95210.84
2022-12-03T08:26:47.684Z,95222.16
2022-12-03T08:29:20.875Z,95218.13
2022-12-03T08:31:54.858Z,95221.44
2022-12-03T08:34:25.532Z,95221.59
2022-12-03T08:36:59.326Z,95225.19
2022-12-03T08:39:33.543Z,95228.03
2022-12-03T08:42:29.633Z,95227.53
2022-12-03T08:44:59.573Z,95231.25
2022-12-03T08:47:30.765Z,95237.63
2022-12-03T08:50:06.841Z,95232.47
2022-12-03T08:52:35.704Z,95225.19
2022-12-03T08:55:30.607Z,95229.72
2022-12-03T08:57:59.514Z,95227.06
2022-12-03T09:00:28.071Z,95228.03
2022-12-03T09:03:02.085Z,95235.66
2022-12-03T09:05:32.423Z,95229.28
2022-12-03T09:08:00.762Z,95220.31
2022-12-03T09:10:29.052Z,95218.91
2022-12-03T09:12:57.166Z,95223.84
2022-12-03T09:15:25.441Z,95227.03
2022-12-03T09:17:53.693Z,95221.38
2022-12-03T09:20:23.136Z,95229.88
2022-12-03T09:22:51.231Z,95220.78
2022-12-03T09:25:19.472Z,95214.69
2022-12-03T09:27:47.559Z,95210.13
2022-12-03T09:30:16.392Z,95213.78
2022-12-03T09:32:44.648Z,95204.13
2022-12-03T09:35:13.736Z,95207.81
2022-12-03T09:37:43.149Z,95203.94
2022-12-03T09:40:12.538Z,95205.06
2022-12-03T09:42:40.978Z,95203.59
2022-12-03T09:45:12.685Z,95202.88
2022-12-03T09:47:45.900Z,95193.72
2022-12-03T09:50:20.178Z,95194.69
2022-12-03T09:52:51.148Z,95192.66
2022-12-03T09:55:27.128Z,95192.41
2022-12-03T09:57:56.876Z,95184.66
2022-12-03T10:00:27.369Z,95182.31
2022-12-03T10:02:58.657Z,95176.22
2022-12-03T10:05:27.262Z,95175.50
2022-12-03T10:08:04.616Z,95167.94
2022-12-03T10:10:34.939Z,95170.19
2022-12-03T10:13:04.312Z,95157.63
2022-12-03T10:15:35.776Z,95163.16
2022-12-03T10:18:17.582Z,95162.16
2022-12-03T10:20:45.773Z,95166.75
2022-12-03T10:23:22.357Z,95166.69
2022-12-03T10:25:52.943Z,95167.47
2022-12-03T10:28:35.578Z,95159.38
2022-12-03T10:31:05.906Z,95147.78
2022-12-03T10:33:36.558Z,95144.53
2022-12-03T10:36:20.401Z,95139.88
2022-12-03T10:39:08.281Z,95139.13
2022-12-03T10:41:37.737Z,95132.34
2022-12-03T10:44:20.135Z,95135.16
2022-12-03T10:47:06.522Z,95134.03
2022-12-03T10:49:34.723Z,95135.31
2022-12-03T10:52:03.195Z,95145.22
2022-12-03T10:54:34.710Z,95144.50
2022-12-03T10:57:03.336Z,95137.72
2022-12-03T10:59:33.972Z,95135.34
2022-12-03T11:02:05.411Z,95134.75
2022-12-03T11:04:35.539Z,95131.09
2022-12-03T11:07:04.785Z,95131.38
2022-12-03T11:09:34.616Z,95133.53
2022-12-03T11:12:05.634Z,95130.75
2022-12-03T11:15:06.344Z,95126.31
2022-12-03T11:17:46.650Z,95120.91
2022-12-03T11:20:53.360Z,95123.78
2022-12-03T11:23:54.591Z,95123.34
2022-12-03T11:26:57.515Z,95118.94
2022-12-03T11:29:58.587Z,95127.53
2022-12-03T11:33:06.414Z,95124.34
2022-12-03T11:36:15.264Z,95124.56
2022-12-03T11:38:55.767Z,95122.38
2022-12-03T11:41:26.795Z,95117.72
2022-12-03T11:44:21.426Z,95112.44
2022-12-03T11:46:49.971Z,95116.81
2022-12-03T11:49:35.177Z,95110.91
2022-12-03T11:52:13.284Z,95120.03
2022-12-03T11:54:51.205Z,95120.75
2022-12-03T11:57:35.906Z,95119.22
2022-12-03T12:00:09.356Z,95123.47
2022-12-03T12:02:43.113Z,95102.47
2022-12-03T12:05:24.282Z,95106.13
2022-12-03T12:07:53.527Z,95092.47
2022-12-03T12:10:47.029Z,95093.84
2022-12-03T12:13:27.527Z,95091.59
2022-12-03T12:15:56.040Z,95091.88
2022-12-03T12:18:38.609Z,95083.19
2022-12-03T12:21:39.491Z,95088.00
2022-12-03T12:24:30.781Z,95073.72
2022-12-03T12:27:02.483Z,95083.28
2022-12-03T12:29:30.898Z,95085.22
2022-12-03T12:32:03.825Z,95078.50
2022-12-03T12:34:32.999Z,95077.22
2022-12-03T12:37:03.879Z,95071.47
2022-12-03T12:39:32.325Z,95058.22
2022-12-03T12:42:02.118Z,95067.63
2022-12-03T12:44:30.345Z,95063.28
2022-12-03T12:47:03.245Z,95069.09
2022-12-03T12:49:31.397Z,95073.63
2022-12-03T12:52:01.183Z,95078.53
2022-12-03T12:54:29.328Z,95070.59
2022-12-03T12:56:57.407Z,95066.91
2022-12-03T12:59:27.709Z,95072.31
2022-12-03T13:01:56.480Z,95070.09
2022-12-03T13:04:26.513Z,95060.81
2022-12-03T13:06:55.360Z,95054.66
2022-12-03T13:09:25.673Z,95048.13
2022-12-03T13:11:56.843Z,95048.66
2022-12-03T13:14:31.244Z,95050.22
2022-12-03T13:17:03.539Z,95051.47
2022-12-03T13:19:46.711Z,95043.94
2022-12-03T13:22:19.917Z,95048.56
2022-12-03T13:24:50.686Z,95050.50
2022-12-03T13:27:29.542Z,95039.69
2022-12-03T13:30:01.824Z,95043.91
2022-12-03T13:32:32.863Z,95043.53
2022-12-03T13:35:06.567Z,95032.13
2022-12-03T13:37:35.050Z,95035.13
2022-12-03T13:40:13.477Z,95033.06
2022-12-03T13:42:42.318Z,95019.28
2022-12-03T13:45:39.815Z,95018.53
2022-12-03T13:48:19.821Z,95027.38
2022-12-03T13:50:48.209Z,95021.75
2022-12-03T13:53:22.806Z,95021.72
2022-12-03T13:55:53.428Z,95027.28
2022-12-03T13:58:21.581Z,95026.69
2022-12-03T14:00:51.147Z,95035.22
2022-12-03T14:03:20.060Z,95027.88
2022-12-03T14:05:48.232Z,95032.81
2022-12-03T14:08:16.670Z,95025.91
2022-12-03T14:10:45.399Z,95030.31
2022-12-03T14:13:13.833Z,95027.59
2022-12-03T14:15:41.830Z,95026.75
2022-12-03T14:18:12.401Z,95031.84
2022-12-03T14:20:40.298Z,95025.28
2022-12-03T14:23:08.285Z,95018.97
2022-12-03T14:25:36.387Z,95009.66
2022-12-03T14:28:08.610Z,95017.50
2022-12-03T14:30:36.731Z,95014.22
2022-12-03T14:33:05.100Z,95020.16
2022-12-03T14:35:35.237Z,95021.94
2022-12-03T14:38:03.253Z,95013.25
2022-12-03T14:40:32.091Z,95022.72
2022-12-03T14:43:00.178Z,95021.72
2022-12-03T14:45:29.982Z,95023.34
2022-12-03T14:47:58.291Z,95032.13
2022-12-03T14:50:27.300Z,95025.31
2022-12-03T14:52:56.870Z,95028.91
2022-12-03T14:55:25.835Z,95031.44
2022-12-03T14:57:53.812Z,95032.63
2022-12-03T15:00:23.514Z,95037.19
2022-12-03T15:02:51.638Z,95041.16
2022-12-03T15:05:26.428Z,95038.06
2022-12-03T15:07:58.164Z,95027.81
2022-12-03T15:10:26.409Z,95034.97
2022-12-03T15:12:54.550Z,95029.22
2022-12-03T15:15:22.693Z,95020.03
2022-12-03T15:17:50.903Z,95012.13
2022-12-03T15:20:19.678Z,95013.13
2022-12-03T15:22:47.745Z,95010.47
2022-12-03T15:25:24.199Z,95009.47
2022-12-03T15:27:52.332Z,95011.84
2022-12-03T15:30:20.664Z,95010.78
2022-12-03T15:32:48.759Z,95006.47
2022-12-03T15:35:18.602Z,95003.91
2022-12-03T15:37:46.890Z,94997.81
2022-12-03T15:40:15.133Z,95008.59
2022-12-03T15:42:44.647Z,95000.06
2022-12-03T15:45:15.282Z,94998.13
2022-12-03T15:47:43.615Z,94995.47
2022-12-03T15:50:13.126Z,95018.34
2022-12-03T15:52:41.577Z,95020.81
2022-12-03T15:55:11.201Z,95021.63
2022-12-03T15:57:39.283Z,95023.84
2022-12-03T16:00:11.236Z,95025.78
2022-12-03T16:02:47.538Z,95030.59
2022-12-03T16:05:19.284Z,95027.25
2022-12-03T16:07:47.355Z,95021.34
2022-12-03T16:10:17.533Z,95030.09
2022-12-03T16:12:47.774Z,95032.22
2022-12-03T16:15:20.925Z,95031.16
2022-12-03T16:17:52.332Z,95036.59
2022-12-03T16:20:20.427Z,95030.28
2022-12-03T16:22:48.542Z,95032.56
2022-12-03T16:25:16.693Z,95034.00
2022-12-03T16:27:44.849Z,95029.56
2022-12-03T16:30:14.727Z,95039.06
2022-12-03T16:32:44.255Z,95030.28
2022-12-03T16:35:12.541Z,95023.78
2022-12-03T16:37:40.533Z,95015.84
2022-12-03T16:40:09.865Z,95018.50
2022-12-03T16:42:38.052Z,95002.75
2022-12-03T16:45:33.394Z,95019.34
2022-12-03T16:48:03.917Z,95019.34
2022-12-03T16:50:32.236Z,95011.19
2022-12-03T16:53:00.543Z,95015.50
2022-12-03T16:55:28.647Z,95015.06
2022-12-03T16:57:58.637Z,95018.84
2022-12-03T17:00:27.305Z,95009.44
2022-12-03T17:02:55.597Z,95011.28
2022-12-03T17:05:25.051Z,95012.59
2022-12-03T17:07:53.149Z,95004.91
2022-12-03T17:10:21.650Z,95001.38
2022-12-03T17:15:38.060Z,94993.66
2022-12-03T17:18:07.192Z,94976.94
2022-12-03T17:20:38.399Z,94989.28
2022-12-03T17:23:06.438Z,94984.44
2022-12-03T17:25:35.810Z,94992.13
2022-12-03T17:28:04.059Z,94989.56
2022-12-03T17:30:32.260Z,94999.78
2022-12-03T17:33:00.293Z,95002.16
2022-12-03T17:35:29.562Z,94993.72
2022-12-03T17:37:59.120Z,95000.34
2022-12-03T17:40:27.212Z,94982.97
2022-12-03T17:42:55.292Z,94987.22
2022-12-03T17:45:23.393Z,94982.41
2022-12-03T17:47:51.537Z,94964.59
2022-12-03T17:50:19.678Z,94968.13
2022-12-03T17:52:47.814Z,94957.97
2022-12-03T17:55:27.819Z,94960.81
2022-12-03T17:58:01.872Z,94970.53
2022-12-03T18:00:31.371Z,94976.78
2022-12-03T18:02:59.601Z,94975.75
2022-12-03T18:05:27.852Z,94971.31
2022-12-03T18:07:56.279Z,94973.31
2022-12-03T18:10:25.820Z,94974.19
2022-12-03T18:12:58.426Z,94972.91
2022-12-03T18:15:29.806Z,94971.66
2022-12-03T18:17:58.001Z,94972.41
2022-12-03T18:20:26.174Z,94973.38
2022-12-03T18:22:54.531Z,94975.63
2022-12-03T18:25:22.771Z,94963.22
2022-12-03T18:27:52.238Z,94972.19
2022-12-03T18:30:20.449Z,94969.25
2022-12-03T18:32:48.905Z,94966.19
2022-12-03T18:35:16.984Z,94962.31
2022-12-03T18:37:45.290Z,94964.41
2022-12-03T18:40:20.057Z,94966.41
2022-12-03T18:42:49.223Z,94969.41
2022-12-03T18:45:18.899Z,94977.63
2022-12-03T18:47:47.055Z,94971.34
2022-12-03T18:50:15.426Z,94973.31
2022-12-03T18:52:43.565Z,94970.00
2022-12-03T18:55:18.517Z,94970.78
2022-12-03T18:57:46.806Z,94968.56
2022-12-03T19:00:16.026Z,94964.78
2022-12-03T19:03:02.300Z,94969.34
2022-12-03T19:05:32.066Z,94971.09
2022-12-03T19:08:00.366Z,94975.19
2022-12-03T19:10:29.030Z,94972.94
2022-12-03T19:12:57.186Z,94975.34
2022-12-03T19:15:25.333Z,94969.59
2022-12-03T19:17:54.962Z,94976.28
2022-12-03T19:20:23.244Z,94976.34
2022-12-03T19:22:51.352Z,94961.56
2022-12-03T19:25:19.764Z,94963.31
2022-12-03T19:27:49.217Z,94968.84
2022-12-03T19:30:17.716Z,94972.09
2022-12-03T19:32:45.901Z,94958.44
2022-12-03T19:35:15.633Z,94969.28
2022-12-03T19:37:43.816Z,94963.66
2022-12-03T19:40:12.381Z,94959.41
2022-12-03T19:42:40.492Z,94959.66
2022-12-03T19:45:09.891Z,94970.53
2022-12-03T19:47:38.435Z,94958.72
2022-12-03T19:50:08.826Z,94964.47
2022-12-03T19:52:38.431Z,94964.56
2022-12-03T19:55:07.114Z,94955.59
2022-12-03T19:57:35.285Z,94952.53
2022-12-03T20:00:04.373Z,94957.72
2022-12-03T20:02:40.387Z,94953.28
2022-12-03T20:05:08.888Z,94947.66
2022-12-03T20:07:38.483Z,94947.34
2022-12-03T20:10:08.023Z,94944.06
2022-12-03T20:12:36.264Z,94935.16
2022-12-03T20:15:04.547Z,94928.69
2022-12-03T20:17:32.659Z,94935.34
2022-12-03T20:20:00.741Z,94934.94
2022-12-03T20:22:28.818Z,94932.25
2022-12-03T20:24:58.310Z,94935.78
2022-12-03T20:27:26.644Z,94935.19
2022-12-03T20:29:54.930Z,94920.78
2022-12-03T20:32:23.130Z,94931.41
2022-12-03T20:34:51.480Z,94934.75
2022-12-03T20:37:19.781Z,94937.28
2022-12-03T20:39:50.617Z,94938.88
2022-12-03T20:42:20.345Z,94945.38
2022-12-03T20:44:48.461Z,94945.84
2022-12-03T20:47:17.623Z,94932.50
2022-12-03T20:49:45.772Z,94928.38
2022-12-03T20:52:13.807Z,94922.31
2022-12-03T20:54:41.826Z,94924.91
2022-12-03T20:57:09.927Z,94927.06
2022-12-03T20:59:39.512Z,94927.75
2022-12-03T21:02:07.712Z,94927.56
2022-12-03T21:04:35.798Z,94929.31
2022-12-03T21:07:04.711Z,94922.75
2022-12-03T21:09:32.997Z,94912.03
2022-12-03T21:12:01.080Z,94915.09
2022-12-03T21:14:29.117Z,94903.31
2022-12-03T21:17:08.455Z,94897.78
2022-12-03T21:19:38.889Z,94900.00
2022-12-03T21:22:07.454Z,94910.22
2022-12-03T21:24:36.303Z,94905.84
2022-12-03T21:27:04.716Z,94907.50
2022-12-03T21:29:32.879Z,94899.19
2022-12-03T21:32:02.339Z,94895.63
2022-12-03T21:34:36.189Z,94896.00
2022-12-03T21:37:05.494Z,94887.38
2022-12-03T21:39:33.961Z,94874.84
2022-12-03T21:42:34.328Z,94891.28
2022-12-03T21:44:50.263Z,94891.94
2022-12-03T21:47:19.967Z,94891.22
2022-12-03T21:49:48.026Z,94895.56
2022-12-03T21:52:16.258Z,94902.28
2022-12-03T21:54:44.361Z,94894.66
2022-12-03T21:57:12.573Z,94893.03
2022-12-03T21:59:40.885Z,94896.22
2022-12-03T22:02:10.614Z,94908.47
2022-12-03T22:04:40.896Z,94906.09
2022-12-03T22:07:08.989Z,94897.28
2022-12-03T22:09:37.287Z,94904.56
2022-12-03T22:12:05.859Z,94909.81
2022-12-03T22:14:34.529Z,94918.53
2022-12-03T22:17:02.785Z,94910.50
2022-12-03T22:19:30.966Z,94904.44
2022-12-03T22:22:00.697Z,94899.63
2022-12-03T22:24:29.345Z,94894.94
2022-12-03T22:26:57.626Z,94896.03
2022-12-03T22:29:26.365Z,94891.22
2022-12-03T22:31:54.727Z,94898.66
2022-12-03T22:34:22.917Z,94900.06
2022-12-03T22:36:50.960Z,94904.75
2022-12-03T22:39:20.477Z,94888.31
2022-12-03T22:41:48.642Z,94891.75
2022-12-03T22:44:16.737Z,94883.66
2022-12-03T22:46:45.096Z,94882.34
2022-12-03T22:49:14.159Z,94877.16
2022-12-03T22:51:42.264Z,94879.34
2022-12-03T22:54:12.018Z,94868.59
2022-12-03T22:56:41.984Z,94876.56
2022-12-03T22:59:10.884Z,94863.16
2022-12-03T23:01:41.347Z,94862.25
2022-12-03T23:04:11.747Z,94852.63
2022-12-03T23:06:40.324Z,94852.50
2022-12-03T23:09:09.324Z,94855.78
2022-12-03T23:11:38.328Z,94861.09
2022-12-03T23:14:07.869Z,94851.13
2022-12-03T23:16:35.964Z,94844.63
2022-12-03T23:19:05.293Z,94844.47
2022-12-03T23:21:35.667Z,94840.69
2022-12-03T23:24:05.811Z,94825.47
2022-12-03T23:26:36.929Z,94825.59
2022-12-03T23:29:05.910Z,94814.75
2022-12-03T23:31:36.114Z,94822.31
2022-12-03T23:34:05.581Z,94836.19
2022-12-03T23:36:34.729Z,94824.50
2022-12-03T23:39:03.349Z,94816.22
2022-12-03T23:41:31.496Z,94825.81
2022-12-03T23:43:59.574Z,94812.44
2022-12-03T23:46:29.610Z,94824.75
2022-12-03T23:49:00.229Z,94820.22
2022-12-03T23:51:28.856Z,94825.22
2022-12-03T23:53:57.499Z,94836.84
2022-12-03T23:56:28.092Z,94827.22
2022-12-03T23:58:56.462Z,94821.59
